Time;durP1;ratioP1;P1;durP2;ratioP2;P2;SDS_P1;SDS_P2;PMS_P1;PMS_P2;Temp;Humidity;BMP_temperature;BMP_pressure;BME280_temperature;BME280_humidity;BME280_pressure;Samples;Min_cycle;Max_cycle;Signal;HPM_P1;HPM_P2
2021/01/04 00:02:16;;;;;;;40.30;24.17;;;;;;;1.93;80.30;101105.64;1666526;84;21180;-86
2021/01/04 00:05:16;;;;;;;38.77;25.17;;;;;;;2.05;80.09;101103.39;1663579;84;21248;-84
2021/01/04 00:08:26;;;;;;;47.80;27.17;;;;;;;2.03;80.02;101107.10;1659076;84;21224;-89
2021/01/04 00:11:38;;;;;;;38.57;23.20;;;;;;;1.98;80.28;101103.97;1653170;84;21239;-86
2021/01/04 00:14:37;;;;;;;45.27;26.90;;;;;;;2.11;79.94;101100.33;1669509;85;21195;-87
2021/01/04 00:17:21;;;;;;;50.13;28.03;;;;;;;2.04;80.08;101104.36;1659093;84;21405;-89
2021/01/04 00:20:15;;;;;;;49.27;26.87;;;;;;;1.98;80.28;101099.56;1656514;84;21353;-88
2021/01/04 00:23:00;;;;;;;41.93;26.40;;;;;;;2.06;80.14;101092.42;1668400;84;21211;-88
2021/01/04 00:25:46;;;;;;;45.57;27.23;;;;;;;2.19;79.83;101088.41;1644431;85;21685;-89
2021/01/04 00:28:18;;;;;;;53.43;29.40;;;;;;;2.11;79.98;101088.49;1658426;84;21203;-88
2021/01/04 00:31:02;;;;;;;46.20;26.97;;;;;;;2.08;80.11;101085.25;1590896;87;21183;-88
2021/01/04 00:33:46;;;;;;;44.93;26.73;;;;;;;2.12;79.92;101089.33;1640668;86;21657;-89
2021/01/04 00:36:24;;;;;;;46.97;24.83;;;;;;;2.11;80.02;101082.38;1622933;86;21239;-88
2021/01/04 00:39:25;;;;;;;46.63;29.10;;;;;;;2.05;80.40;101083.67;1618866;87;21224;-88
2021/01/04 00:42:10;;;;;;;46.00;27.33;;;;;;;2.09;80.28;101082.52;1638666;84;21209;-88
2021/01/04 00:45:18;;;;;;;48.70;26.00;;;;;;;2.23;79.93;101084.58;1628972;82;21196;-85
2021/01/04 00:48:29;;;;;;;45.97;27.47;;;;;;;2.17;80.03;101075.81;1565224;91;21225;-86
2021/01/04 00:51:13;;;;;;;46.17;26.43;;;;;;;2.07;80.24;101087.05;1570821;91;21234;-86
2021/01/04 00:53:52;;;;;;;47.43;27.63;;;;;;;2.24;80.00;101076.58;1795912;77;22934;-86
2021/01/04 00:56:41;;;;;;;41.80;24.50;;;;;;;2.18;80.14;101081.45;1776233;78;21310;-89
2021/01/04 00:59:22;;;;;;;43.00;25.55;;;;;;;2.14;80.24;101088.24;1779897;78;22637;-91
2021/01/04 01:02:14;;;;;;;42.60;26.20;;;;;;;2.24;80.05;101094.13;1784668;80;21685;-91
2021/01/04 01:05:08;;;;;;;48.70;28.83;;;;;;;2.34;79.60;101090.70;1786233;80;21330;-88
2021/01/04 01:07:47;;;;;;;52.27;30.13;;;;;;;2.29;79.72;101094.14;1795698;78;21148;-86
2021/01/04 01:10:14;;;;;;;48.90;26.33;;;;;;;2.24;79.87;101087.55;1790492;80;21183;-89
2021/01/04 01:13:05;;;;;;;39.17;23.73;;;;;;;2.32;79.75;101090.47;1790742;80;21168;-86
2021/01/04 01:15:36;;;;;;;47.60;27.50;;;;;;;2.45;79.33;101089.89;1773501;78;21211;-86
2021/01/04 01:18:17;;;;;;;47.23;30.67;;;;;;;2.43;79.25;101087.86;1785401;80;21654;-91
2021/01/04 01:20:50;;;;;;;43.77;26.47;;;;;;;2.33;79.58;101100.02;1779478;78;21140;-88
2021/01/04 01:23:17;;;;;;;43.83;26.53;;;;;;;2.31;79.70;101091.41;1785917;80;21149;-89
2021/01/04 01:25:50;;;;;;;46.03;28.60;;;;;;;2.39;79.48;101092.13;1789509;79;21184;-90
2021/01/04 01:28:56;;;;;;;45.10;29.97;;;;;;;2.43;79.42;101083.91;1793572;80;21314;-85
2021/01/04 01:31:33;;;;;;;48.67;30.63;;;;;;;2.41;79.58;101070.03;1781203;78;21148;-84
2021/01/04 01:34:55;;;;;;;37.85;24.12;;;;;;;2.40;79.52;101078.04;1792866;78;21692;-85
2021/01/04 01:37:50;;;;;;;46.03;27.20;;;;;;;2.53;79.23;101069.56;1736558;80;21323;-85
2021/01/04 01:40:54;;;;;;;54.77;31.97;;;;;;;2.60;78.90;101075.17;1748981;80;21201;-85
2021/01/04 01:44:02;;;;;;;53.63;28.10;;;;;;;2.48;79.12;101082.23;1747243;80;21344;-86
2021/01/04 01:46:50;;;;;;;54.03;27.73;;;;;;;2.36;79.52;101080.06;1745633;80;21312;-85
2021/01/04 01:49:44;;;;;;;55.00;31.20;;;;;;;2.52;79.24;101081.89;1798424;78;23741;-86
2021/01/04 01:52:50;;;;;;;50.83;29.73;;;;;;;2.46;79.19;101080.19;1774334;79;21746;-85
2021/01/04 01:55:54;;;;;;;47.70;26.37;;;;;;;2.42;79.45;101070.86;1756670;80;21181;-84
2021/01/04 01:59:06;;;;;;;47.23;25.83;;;;;;;2.39;79.53;101075.86;1758809;80;21190;-85
2021/01/04 02:02:15;;;;;;;49.00;28.67;;;;;;;2.50;79.19;101071.94;1756338;80;21268;-85
2021/01/04 02:04:57;;;;;;;46.60;26.60;;;;;;;2.44;79.43;101081.63;1758065;80;21160;-85
2021/01/04 02:07:35;;;;;;;46.83;28.00;;;;;;;2.38;79.52;101074.20;1733851;81;21165;-85
2021/01/04 02:10:16;;;;;;;45.77;26.83;;;;;;;2.50;79.39;101075.88;1733055;81;21164;-87
2021/01/04 02:13:26;;;;;;;52.07;31.13;;;;;;;2.56;79.17;101073.73;1725246;79;21299;-87
2021/01/04 02:16:10;;;;;;;48.60;27.73;;;;;;;2.52;79.27;101071.36;1717380;81;21764;-87
2021/01/04 02:19:01;;;;;;;48.63;29.07;;;;;;;2.45;79.61;101076.73;1700340;83;21765;-85
2021/01/04 02:21:57;;;;;;;47.73;29.00;;;;;;;2.56;79.22;101072.42;1683725;83;21166;-87
2021/01/04 02:24:26;;;;;;;44.37;25.77;;;;;;;2.52;79.18;101070.05;1692528;83;21327;-85
2021/01/04 02:27:13;;;;;;;47.83;28.53;;;;;;;2.44;79.52;101067.15;1695522;83;21184;-87
2021/01/04 02:29:40;;;;;;;53.68;28.60;;;;;;;2.41;79.74;101064.77;1684595;84;21665;-86
2021/01/04 02:32:07;;;;;;;;;;;;;;;2.53;79.46;101056.41;1701064;84;22306;-84
2021/01/04 02:34:38;;;;;;;40.10;23.92;;;;;;;2.52;79.41;101070.50;1656334;84;20207;-87
2021/01/04 02:37:06;;;;;;;50.27;29.00;;;;;;;2.36;79.85;101071.34;1667842;84;21749;-88
2021/01/04 02:40:00;;;;;;;48.23;29.50;;;;;;;2.44;79.80;101068.46;1687516;84;21251;-87
2021/01/04 02:42:34;;;;;;;48.93;29.97;;;;;;;2.53;79.56;101070.39;1663761;84;21417;-87
2021/01/04 02:45:17;;;;;;;52.43;29.77;;;;;;;2.52;79.65;101077.08;1672777;84;21394;-88
2021/01/04 02:48:09;;;;;;;43.83;26.50;;;;;;;2.47;79.81;101076.63;1679964;84;21710;-87
2021/01/04 02:51:04;;;;;;;41.77;29.57;;;;;;;2.58;79.48;101083.67;1712849;82;21707;-89
2021/01/04 02:54:07;;;;;;;47.83;31.57;;;;;;;2.56;79.59;101086.90;1711195;82;21195;-87
2021/01/04 02:56:43;;;;;;;49.10;30.70;;;;;;;2.52;79.73;101092.88;1707713;82;21692;-86
2021/01/04 02:59:41;;;;;;;49.53;28.73;;;;;;;2.55;79.68;101081.30;1687405;82;21193;-87
2021/01/04 03:02:16;;;;;;;46.60;29.67;;;;;;;2.64;79.42;101089.31;1711982;82;21180;-87
2021/01/04 03:04:45;;;;;;;51.77;29.27;;;;;;;2.57;79.55;101089.42;1716522;82;21157;-89
2021/01/04 03:07:20;;;;;;;39.37;26.47;;;;;;;2.57;79.68;101083.33;1688836;83;21282;-87
2021/01/04 03:09:51;;;;;;;37.90;26.33;;;;;;;2.67;79.32;101076.38;1715547;82;21166;-86
2021/01/04 03:12:26;;;;;;;44.60;27.47;;;;;;;2.66;79.16;101068.14;1724508;82;21193;-88
2021/01/04 03:15:17;;;;;;;46.97;28.30;;;;;;;2.56;79.53;101073.25;1724019;82;21754;-88
2021/01/04 03:18:01;;;;;;;42.73;27.30;;;;;;;2.61;79.56;101084.77;1732431;82;21197;-87
2021/01/04 03:20:29;;;;;;;46.13;26.97;;;;;;;2.72;79.30;101083.45;1731472;82;21742;-86
2021/01/04 03:22:56;;;;;;;37.20;24.07;;;;;;;2.69;79.37;101085.00;1700568;82;21177;-87
2021/01/04 03:25:37;;;;;;;38.07;24.03;;;;;;;2.68;79.33;101091.23;1731241;82;21204;-87
2021/01/04 03:28:05;;;;;;;46.10;30.27;;;;;;;2.81;79.12;101076.64;1715625;82;21152;-86
2021/01/04 03:30:32;;;;;;;44.23;25.90;;;;;;;2.83;78.86;101075.55;1688596;82;21229;-88
2021/01/04 03:32:59;;;;;;;38.67;25.90;;;;;;;2.79;79.02;101078.08;1711147;82;21181;-88
2021/01/04 03:35:27;;;;;;;44.90;26.13;;;;;;;2.75;79.10;101071.83;1696041;82;21610;-87
2021/01/04 03:37:54;;;;;;;35.93;23.43;;;;;;;2.78;79.09;101063.22;1665834;85;21224;-87
2021/01/04 03:40:22;;;;;;;32.47;21.73;;;;;;;2.89;78.86;101073.75;1708230;82;21189;-89
2021/01/04 03:42:49;;;;;;;41.63;27.00;;;;;;;2.85;78.71;101055.69;1708644;82;21603;-89
2021/01/04 03:45:16;;;;;;;38.83;26.57;;;;;;;2.78;78.86;101071.12;1709053;82;21662;-91
2021/01/04 03:47:43;;;;;;;42.27;24.23;;;;;;;2.75;79.14;101069.20;1710051;82;21209;-88
2021/01/04 03:50:14;;;;;;;39.07;25.93;;;;;;;2.82;78.85;101072.55;1707359;82;21194;-89
2021/01/04 03:52:40;;;;;;;44.60;26.30;;;;;;;2.84;78.74;101070.63;1685612;82;21195;-88
2021/01/04 03:55:09;;;;;;;40.13;26.00;;;;;;;2.73;79.00;101057.47;1708022;82;21177;-89
2021/01/04 03:57:35;;;;;;;39.90;26.47;;;;;;;2.72;79.17;101050.55;1709784;82;21250;-88
2021/01/04 04:00:08;;;;;;;37.77;26.13;;;;;;;2.83;78.89;101045.28;1706963;82;21218;-92
2021/01/04 04:02:38;;;;;;;42.27;26.63;;;;;;;2.87;78.86;101048.02;1700593;82;21303;-90
2021/01/04 04:05:07;;;;;;;42.50;26.37;;;;;;;2.84;78.96;101050.05;1705134;82;21678;-91
2021/01/04 04:07:34;;;;;;;34.13;24.87;;;;;;;2.83;79.01;101054.49;1693333;84;21338;-89
2021/01/04 04:10:04;;;;;;;36.43;24.30;;;;;;;2.88;78.72;101042.27;1685498;84;21808;-87
2021/01/04 04:12:34;;;;;;;39.53;26.50;;;;;;;2.92;78.57;101058.20;1683732;84;21342;-87
2021/01/04 04:15:01;;;;;;;36.83;24.77;;;;;;;2.84;78.85;101040.84;1685813;84;21860;-87
2021/01/04 04:17:28;;;;;;;41.70;23.90;;;;;;;2.90;78.79;101042.52;1659794;84;21358;-88
2021/01/04 04:19:56;;;;;;;39.07;25.30;;;;;;;2.89;78.50;101039.52;1688598;84;21208;-87
2021/01/04 04:22:24;;;;;;;38.30;23.60;;;;;;;1.76;78.65;100878.20;1684345;84;21213;-89
2021/01/04 04:24:54;;;;;;;37.27;23.60;;;;;;;2.81;78.87;101061.67;1671087;84;21199;-90
2021/01/04 04:27:21;;;;;;;32.57;24.10;;;;;;;2.90;78.69;101058.32;1687497;84;21212;-88
2021/01/04 04:29:49;;;;;;;35.37;23.10;;;;;;;2.92;78.54;101033.19;1681959;84;21333;-88
2021/01/04 04:32:18;;;;;;;37.57;23.73;;;;;;;2.81;78.94;101031.39;1687375;84;21407;-87
2021/01/04 04:34:46;;;;;;;34.93;22.37;;;;;;;2.86;78.86;101042.41;1687191;84;21246;-87
2021/01/04 04:37:43;;;;;;;38.67;25.50;;;;;;;2.98;78.55;101043.72;1790252;78;27823;-86
2021/01/04 04:40:18;;;;;;;37.53;25.37;;;;;;;2.92;78.45;101037.14;1795297;79;21193;-89
2021/01/04 04:42:56;;;;;;;33.37;22.20;;;;;;;2.85;78.72;101044.67;1774665;79;21171;-90
2021/01/04 04:45:28;;;;;;;35.10;21.80;;;;;;;2.81;78.93;101046.36;1771333;79;21578;-90
2021/01/04 04:48:09;;;;;;;33.37;22.47;;;;;;;2.90;78.89;101042.52;1769256;79;21844;-87
2021/01/04 04:51:03;;;;;;;35.73;23.90;;;;;;;2.88;78.78;101043.13;1772172;79;21686;-90
2021/01/04 04:53:50;;;;;;;35.03;22.83;;;;;;;2.84;79.07;101046.94;1769971;79;21115;-90
2021/01/04 04:56:41;;;;;;;34.38;22.02;;;;;;;2.85;79.07;101040.72;1775262;79;21197;-90
2021/01/04 04:59:54;;;;;;;33.30;20.50;;;;;;;2.92;78.67;101028.75;1781929;79;21170;-89
2021/01/04 05:02:39;;;;;;;33.40;21.57;;;;;;;2.89;78.58;101035.56;1770104;79;21617;-88
2021/01/04 05:05:31;;;;;;;28.57;18.17;;;;;;;2.82;79.04;101040.95;1777932;79;21204;-91
2021/01/04 05:08:24;;;;;;;29.63;20.37;;;;;;;2.88;79.06;101038.31;1776226;79;21296;-92
2021/01/04 05:10:53;;;;;;;30.63;19.50;;;;;;;2.93;78.93;101033.53;1730822;79;21187;-92
2021/01/04 05:13:26;;;;;;;29.87;19.97;;;;;;;2.89;79.21;101036.05;1766915;79;21191;-90
2021/01/04 05:16:03;;;;;;;27.87;18.47;;;;;;;2.83;79.39;101033.42;1782717;79;21689;-92
2021/01/04 05:19:04;;;;;;;31.43;19.43;;;;;;;2.92;79.02;101038.45;1778813;79;21178;-92
2021/01/04 05:22:00;;;;;;;30.27;18.83;;;;;;;2.93;78.96;101036.99;1765582;79;21145;-91
2021/01/04 05:24:59;;;;;;;26.50;15.68;;;;;;;2.82;79.36;101029.59;1784815;79;21146;-91
2021/01/04 05:28:23;;;;;;;26.53;17.07;;;;;;;2.81;79.44;101039.30;1777394;79;21325;-92
2021/01/04 05:31:06;;;;;;;23.27;15.77;;;;;;;2.91;79.10;101044.18;1775046;79;21198;-90
2021/01/04 05:34:00;;;;;;;24.43;17.07;;;;;;;2.89;79.14;101034.73;1744015;81;21329;-88
2021/01/04 05:36:56;;;;;;;24.70;14.97;;;;;;;2.85;79.35;101036.77;1745815;81;21694;-90
2021/01/04 05:39:47;;;;;;;24.33;16.10;;;;;;;2.88;79.29;101038.31;1746571;80;21573;-88
2021/01/04 05:42:42;;;;;;;25.15;17.27;;;;;;;2.96;78.87;101039.02;1722022;82;21190;-87
2021/01/04 05:45:27;;;;;;;27.80;18.37;;;;;;;2.93;78.91;101046.70;1750556;80;21247;-87
2021/01/04 05:48:16;;;;;;;25.80;16.97;;;;;;;2.85;79.21;101046.48;1688414;84;21207;-89
2021/01/04 05:51:07;;;;;;;22.20;15.93;;;;;;;2.96;78.97;101050.41;1701930;82;21219;-89
2021/01/04 05:53:36;;;;;;;24.30;14.67;;;;;;;2.99;78.94;101051.96;1714806;82;21214;-89
2021/01/04 05:56:04;;;;;;;23.10;16.03;;;;;;;2.93;79.08;101065.13;1711948;82;21232;-88
2021/01/04 05:58:33;;;;;;;26.97;19.23;;;;;;;2.92;79.13;101064.30;1722698;82;21674;-90
2021/01/04 06:01:17;;;;;;;32.70;21.23;;;;;;;3.02;78.73;101053.05;1734676;80;21330;-90
2021/01/04 06:04:01;;;;;;;26.27;18.00;;;;;;;3.00;78.77;101054.97;1760488;80;21152;-89
2021/01/04 06:06:34;;;;;;;27.40;19.10;;;;;;;2.96;79.03;101059.64;1741312;80;21122;-89
2021/01/04 06:09:09;;;;;;;26.63;16.83;;;;;;;2.97;79.13;101059.15;1726806;82;21211;-90
2021/01/04 06:11:55;;;;;;;25.20;15.83;;;;;;;3.12;78.72;101063.19;1723474;82;21164;-87
2021/01/04 06:14:31;;;;;;;27.50;17.27;;;;;;;3.15;78.29;101060.33;1729131;82;21278;-89
2021/01/04 06:17:08;;;;;;;23.00;15.00;;;;;;;3.05;78.65;101062.86;1726041;82;21158;-89
2021/01/04 06:19:40;;;;;;;28.37;19.47;;;;;;;2.99;78.85;101054.11;1734392;82;21199;-88
2021/01/04 06:22:17;;;;;;;22.00;15.47;;;;;;;3.06;78.63;101053.16;1728130;81;21193;-89
2021/01/04 06:24:45;;;;;;;24.07;16.93;;;;;;;3.11;78.54;101058.91;1727386;82;21135;-89
2021/01/04 06:27:32;;;;;;;26.90;18.43;;;;;;;3.01;78.77;101069.30;1726880;82;21181;-89
2021/01/04 06:30:35;;;;;;;25.53;18.13;;;;;;;3.02;78.77;101058.31;1725481;82;21221;-89
2021/01/04 06:33:22;;;;;;;24.93;18.63;;;;;;;3.10;78.53;101066.44;1721350;82;21545;-89
2021/01/04 06:36:07;;;;;;;31.40;18.17;;;;;;;3.06;78.63;101061.05;1723206;82;21515;-89
2021/01/04 06:38:36;;;;;;;24.37;17.87;;;;;;;2.98;79.01;101069.56;1694070;82;21260;-87
2021/01/04 06:41:17;;;;;;;27.00;19.97;;;;;;;3.02;78.90;101067.53;1714400;82;21149;-87
2021/01/04 06:43:46;;;;;;;30.93;21.80;;;;;;;3.11;78.58;101076.02;1705755;83;21255;-90
2021/01/04 06:46:55;;;;;;;24.97;18.73;;;;;;;3.07;78.72;101075.42;1682586;82;21153;-91
2021/01/04 06:49:52;;;;;;;29.90;20.03;;;;;;;3.01;79.16;101087.73;1704292;81;21169;-90
2021/01/04 06:52:45;;;;;;;24.33;17.73;;;;;;;3.12;78.88;101085.09;1689718;84;21195;-93
2021/01/04 06:55:59;;;;;;;29.87;20.47;;;;;;;3.09;78.89;101089.31;1675261;84;21218;-89
2021/01/04 06:58:54;;;;;;;35.30;18.83;;;;;;;3.04;79.18;101094.09;1724456;82;21246;-91
2021/01/04 07:02:02;;;;;;;35.97;21.63;;;;;;;3.02;78.96;101082.02;1724853;80;21147;-92
2021/01/04 07:05:08;;;;;;;34.33;23.03;;;;;;;3.10;79.02;101078.28;1712737;81;21176;-92
2021/01/04 07:08:04;;;;;;;36.10;22.70;;;;;;;3.08;79.06;101081.52;1676340;84;21143;-92
2021/01/04 07:11:07;;;;;;;32.57;21.53;;;;;;;3.05;79.31;101085.25;1683042;84;21164;-92
2021/01/04 07:14:29;;;;;;;34.13;21.40;;;;;;;3.17;79.00;101075.53;1681264;84;21169;-91
2021/01/04 07:17:45;;;;;;;31.70;21.30;;;;;;;3.16;78.84;101076.47;1719834;82;21110;-92
2021/01/04 07:20:46;;;;;;;29.00;20.77;;;;;;;3.14;79.04;101080.20;1680930;84;21199;-92
2021/01/04 07:23:39;;;;;;;30.57;21.27;;;;;;;3.25;78.76;101066.52;1714831;82;21200;-92
2021/01/04 07:26:23;;;;;;;31.47;22.73;;;;;;;3.20;79.01;101069.17;1714988;82;21530;-93
2021/01/04 07:29:33;;;;;;;35.63;23.93;;;;;;;3.15;79.26;101065.59;1717043;82;21233;-92
2021/01/04 07:32:59;;;;;;;36.83;26.37;;;;;;;3.24;79.05;101067.95;1698359;83;21192;-91
2021/01/04 07:35:47;;;;;;;36.40;23.53;;;;;;;3.25;78.92;101066.52;1741215;82;21073;-94
2021/01/04 07:38:59;;;;;;;36.43;23.33;;;;;;;3.16;79.17;101072.52;1705260;82;21204;-92
2021/01/04 07:41:54;;;;;;;35.17;26.10;;;;;;;3.24;79.16;101064.86;1699542;83;21163;-92
2021/01/04 07:44:38;;;;;;;44.70;29.93;;;;;;;3.31;78.68;101070.46;1699888;82;21176;-92
2021/01/04 07:47:57;;;;;;;41.87;28.10;;;;;;;3.20;79.05;101059.48;1709921;82;21239;-93
2021/01/04 07:50:51;;;;;;;39.00;25.50;;;;;;;3.19;79.16;101064.39;1685023;84;21197;-93
2021/01/04 07:54:57;;;;;;;35.50;25.30;;;;;;;3.40;78.62;101060.99;1797472;78;26408;-91
2021/01/04 07:58:41;;;;;;;38.63;26.73;;;;;;;3.29;78.49;101061.36;1704216;80;21364;-92
2021/01/04 08:02:17;;;;;;;38.53;26.73;;;;;;;3.20;78.92;101070.02;1670441;84;21246;-91
2021/01/04 08:05:48;;;;;;;45.90;28.50;;;;;;;3.39;78.83;101061.94;1642667;83;21082;-91
2021/01/04 08:09:00;;;;;;;41.97;26.80;;;;;;;3.37;78.82;101062.55;1655466;85;21379;-94
2021/01/04 08:12:27;;;;;;;;;;;;;;;;;;;;;
2021/01/04 08:15:51;;;;;;;37.33;25.47;;;;;;;3.54;78.00;101066.45;1809991;77;23543;-92
2021/01/04 08:18:22;;;;;;;37.83;26.93;;;;;;;3.41;78.14;101073.19;1768598;79;21125;-91
2021/01/04 08:21:56;;;;;;;32.57;22.93;;;;;;;3.34;78.51;101074.18;1737239;81;21105;-91
2021/01/04 08:24:54;;;;;;;35.53;22.93;;;;;;;3.46;78.12;101087.67;1740814;76;21165;-91
2021/01/04 08:28:22;;;;;;;36.27;23.13;;;;;;;3.57;77.89;101088.13;1688171;83;21165;-93
2021/01/04 08:37:17;;;;;;;39.40;26.83;;;;;;;3.66;77.65;101088.70;1753622;79;21118;-93
2021/01/04 08:40:34;;;;;;;37.33;24.23;;;;;;;3.63;77.80;101087.63;1738671;81;21148;-91
2021/01/04 08:43:11;;;;;;;37.43;22.97;;;;;;;3.62;77.91;101082.50;1725441;81;21141;-90
2021/01/04 08:45:51;;;;;;;31.97;23.33;;;;;;;3.70;77.32;101099.35;1731837;81;21133;-92
2021/01/04 08:48:36;;;;;;;30.30;20.90;;;;;;;3.76;77.33;101093.23;1714276;81;21228;-93
2021/01/04 08:51:44;;;;;;;35.17;23.33;;;;;;;3.71;77.61;101089.62;1763215;81;21645;-93
2021/01/04 08:55:25;;;;;;;34.17;23.63;;;;;;;3.76;77.46;101094.55;1705314;80;21179;-93
2021/01/04 09:01:26;;;;;;;32.80;22.60;;;;;;;3.62;77.75;101086.45;1709133;82;21143;-96
2021/01/04 09:04:14;;;;;;;34.57;23.83;;;;;;;3.69;77.73;101081.88;1687861;83;21198;-95
2021/01/04 09:07:12;;;;;;;35.50;23.67;;;;;;;3.83;77.31;101081.22;1634871;84;21095;-93
2021/01/04 09:10:22;;;;;;;40.53;26.63;;;;;;;3.80;76.97;101073.55;1611177;87;21233;-92
2021/01/04 09:13:23;;;;;;;37.95;27.37;;;;;;;3.67;77.38;101074.58;1599446;87;22086;-90
2021/01/04 09:16:32;;;;;;;40.08;28.12;;;;;;;3.76;77.30;101086.15;1656511;85;21221;-95
2021/01/04 09:19:43;;;;;;;35.37;25.13;;;;;;;3.74;77.33;101076.70;1633383;86;21127;-94
2021/01/04 09:23:11;;;;;;;45.80;29.33;;;;;;;3.67;77.79;101077.67;1666275;83;21154;-92
2021/01/04 09:30:04;;;;;;;43.90;28.30;;;;;;;3.90;77.16;101077.13;1655058;81;21241;-93
2021/01/04 09:33:22;;;;;;;40.97;27.40;;;;;;;3.80;77.33;101077.02;1695839;80;21421;-93
2021/01/04 09:43:08;;;;;;;42.53;28.63;;;;;;;3.84;77.47;101069.69;1762007;80;21171;-93
2021/01/04 09:50:42;;;;;;;46.80;29.33;;;;;;;3.90;77.48;101073.16;1710872;81;21225;-94
2021/01/04 09:54:02;;;;;;;46.13;29.97;;;;;;;3.88;77.42;101062.73;1714351;82;21137;-94
2021/01/04 09:57:21;;;;;;;52.53;32.23;;;;;;;3.80;77.60;101063.83;1711075;81;21133;-93
2021/01/04 10:00:48;;;;;;;53.60;31.67;;;;;;;3.87;77.58;101062.86;1706551;83;21256;-93
2021/01/04 10:04:06;;;;;;;49.50;32.00;;;;;;;3.85;77.49;101060.83;1700754;83;21189;-93
2021/01/04 10:07:24;;;;;;;46.80;32.00;;;;;;;3.27;77.97;100979.45;1686276;83;21155;-93
2021/01/04 10:10:21;;;;;;;54.73;32.47;;;;;;;2.77;77.83;100872.01;1692490;82;21205;-88
2021/01/04 10:12:48;;;;;;;45.70;30.03;;;;;;;4.02;77.78;101047.06;1709103;81;21238;-91
2021/01/04 10:15:28;;;;;;;44.00;28.67;;;;;;;4.00;77.34;101050.32;1677214;84;21203;-92
2021/01/04 10:18:35;;;;;;;37.23;24.73;;;;;;;4.02;77.54;101045.75;1793576;79;24856;-90
2021/01/04 10:22:22;;;;;;;53.23;32.20;;;;;;;4.14;77.20;101051.79;1751930;80;21198;-90
2021/01/04 10:25:14;;;;;;;40.52;27.62;;;;;;;4.14;77.20;101051.79;1752240;80;21312;-90
2021/01/04 10:27:43;;;;;;;50.75;32.35;;;;;;;4.05;77.35;101053.42;1746219;81;22230;-91
2021/01/04 10:46:43;;;;;;;55.40;33.97;;;;;;;4.27;77.16;101031.80;1772059;77;21206;-91
2021/01/04 10:50:18;;;;;;;52.90;33.93;;;;;;;4.31;77.00;101038.98;1859878;75;22879;-92
2021/01/04 10:53:09;;;;;;;49.20;35.00;;;;;;;4.16;77.42;101038.47;1732058;81;21700;-90
2021/01/04 10:56:08;;;;;;;39.63;28.37;;;;;;;4.22;77.43;101047.19;1778652;79;21368;-92
2021/01/04 11:15:05;;;;;;;55.27;35.67;;;;;;;4.27;76.83;101046.32;1783411;77;21151;-90
2021/01/04 11:18:14;;;;;;;49.30;31.07;;;;;;;4.25;77.13;101058.81;1813670;77;21182;-92
2021/01/04 11:20:52;;;;;;;50.60;41.23;;;;;;;4.31;76.97;101053.50;1752379;79;39203;-93
2021/01/04 11:23:31;;;;;;;52.17;35.33;;;;;;;4.46;76.69;101050.87;1753836;79;21207;-91
2021/01/04 11:27:05;;;;;;;53.03;32.30;;;;;;;4.49;76.12;101056.73;1758738;79;21104;-94
2021/01/04 11:30:01;;;;;;;62.00;36.60;;;;;;;4.46;76.27;101057.01;1745559;80;21237;-92
2021/01/04 11:43:48;;;;;;;54.17;34.23;;;;;;;4.15;77.00;101017.86;1816324;75;22371;-90
2021/01/04 11:46:29;;;;;;;58.57;36.37;;;;;;;4.03;77.46;101025.02;1800704;79;21171;-90
2021/01/04 12:00:14;;;;;;;53.40;33.20;;;;;;;4.08;77.37;101023.30;1794967;78;26528;-91
2021/01/04 12:03:21;;;;;;;54.73;31.87;;;;;;;4.20;77.17;101019.63;1766336;78;22804;-92
2021/01/04 12:06:05;;;;;;;59.97;34.27;;;;;;;4.15;77.03;101020.98;1769135;77;21170;-93
2021/01/04 12:09:05;;;;;;;59.47;36.50;;;;;;;4.10;77.05;101026.63;1719108;81;21315;-93
2021/01/04 12:12:27;;;;;;;;;;;;;;;4.10;77.16;101031.42;1729199;81;21141;-93
2021/01/04 12:14:56;;;;;;;59.33;37.90;;;;;;;4.25;76.77;101044.30;1735269;81;20603;-96
2021/01/04 12:17:28;;;;;;;60.63;34.97;;;;;;;4.15;77.21;101044.73;1731618;81;21132;-93
2021/01/04 12:19:58;;;;;;;54.33;35.53;;;;;;;4.09;77.34;101056.15;1729457;81;21185;-91
2021/01/04 12:22:26;;;;;;;56.23;34.20;;;;;;;4.08;77.45;101054.46;1750460;80;21598;-93
2021/01/04 12:25:00;;;;;;;50.40;32.43;;;;;;;4.20;77.09;101051.30;1752835;80;21215;-93
2021/01/04 12:27:43;;;;;;;53.13;32.80;;;;;;;4.22;77.02;101040.13;1748018;81;21116;-96
2021/01/04 12:31:05;;;;;;;;;;;;;;;;;;;;;
2021/01/04 12:34:02;;;;;;;52.03;31.00;;;;;;;3.01;77.21;100869.14;1786613;77;21281;-94
2021/01/04 12:36:41;;;;;;;61.27;35.77;;;;;;;4.31;77.09;101053.50;1750596;79;21194;-94
2021/01/04 12:39:21;;;;;;;52.80;34.27;;;;;;;4.43;76.45;101061.22;1692195;82;21195;-95
2021/01/04 12:43:01;;;;;;;63.57;39.30;;;;;;;4.38;76.52;101054.16;1766613;78;27886;-93
2021/01/04 12:45:55;;;;;;;64.30;39.10;;;;;;;4.29;76.65;101057.13;1757034;78;21158;-94
2021/01/04 12:48:51;;;;;;;60.03;39.90;;;;;;;4.42;76.50;101061.34;1756657;77;21162;-94
2021/01/04 12:54:53;;;;;;;69.60;43.60;;;;;;;4.42;76.14;101062.66;1770637;79;21301;-95
2021/01/04 13:15:48;;;;;;;61.83;34.60;;;;;;;4.13;77.51;101056.73;1878848;74;24081;-93
2021/01/04 13:18:54;;;;;;;69.23;38.73;;;;;;;4.06;77.59;101052.44;1820838;77;21803;-96
2021/01/04 13:21:58;;;;;;;54.53;33.47;;;;;;;3.95;77.90;101049.86;1827509;77;21228;-95
2021/01/04 13:25:05;;;;;;;56.07;35.07;;;;;;;3.94;78.18;101049.52;1825643;77;21108;-94
2021/01/04 13:28:16;;;;;;;54.83;32.97;;;;;;;4.07;77.84;101047.53;1855952;77;21139;-94
2021/01/04 13:30:53;;;;;;;56.83;34.60;;;;;;;4.03;77.94;101043.48;1825826;78;21128;-92
2021/01/04 13:34:06;;;;;;;58.90;33.13;;;;;;;3.98;78.21;101035.59;1853508;77;21246;-92
2021/01/04 13:37:09;;;;;;;86.10;39.13;;;;;;;4.05;78.18;101033.63;1820047;75;21258;-94
2021/01/04 13:43:29;;;;;;;60.80;32.43;;;;;;;4.14;77.78;101036.45;1818839;77;21107;-93
2021/01/04 13:46:42;;;;;;;54.17;30.63;;;;;;;4.05;78.09;101051.23;1790731;76;21152;-93
2021/01/04 13:49:51;;;;;;;53.73;31.97;;;;;;;4.13;78.03;101050.63;1789940;78;21685;-93
2021/01/04 13:52:21;;;;;;;57.73;30.17;;;;;;;4.08;78.15;101053.63;1780545;78;21612;-92
2021/01/04 13:54:59;;;;;;;45.67;28.80;;;;;;;3.94;78.67;101045.56;1795968;78;21304;-92
2021/01/04 13:57:45;;;;;;;55.93;32.87;;;;;;;4.00;78.57;101043.72;1826304;77;21124;-94
2021/01/04 14:00:39;;;;;;;58.07;30.53;;;;;;;4.13;78.41;101034.80;1825118;75;22929;-92
2021/01/04 14:03:28;;;;;;;64.80;34.97;;;;;;;4.03;78.52;101044.80;1758544;79;21133;-93
2021/01/04 14:06:16;;;;;;;75.30;34.47;;;;;;;4.00;78.67;101041.09;1739935;81;21140;-95
2021/01/04 14:09:02;;;;;;;62.57;34.77;;;;;;;4.00;78.74;101037.13;1769537;81;21229;-95
2021/01/04 14:11:54;;;;;;;68.97;35.07;;;;;;;4.12;78.52;101039.70;1735810;80;21177;-93
2021/01/04 14:14:28;;;;;;;85.17;39.37;;;;;;;4.30;78.09;101038.16;1761354;80;21148;-91
2021/01/04 14:17:09;;;;;;;67.63;36.20;;;;;;;4.34;78.00;101042.20;1760941;81;21338;-92
2021/01/04 14:19:52;;;;;;;72.33;38.07;;;;;;;4.30;78.01;101038.16;1702211;83;21179;-93
2021/01/04 14:23:02;;;;;;;63.33;36.27;;;;;;;4.25;78.11;101033.74;1708226;83;21861;-93
2021/01/04 14:25:51;;;;;;;67.37;37.03;;;;;;;3.58;78.04;100913.20;1734006;81;21120;-92
2021/01/04 14:29:00;;;;;;;53.97;31.30;;;;;;;4.38;77.90;101020.34;1703957;81;21329;-93
2021/01/04 14:31:50;;;;;;;66.57;34.97;;;;;;;4.29;78.23;101018.00;1743515;81;21518;-93
2021/01/04 14:34:20;;;;;;;59.30;36.30;;;;;;;4.23;78.48;101023.80;1703946;82;21163;-93
2021/01/04 14:36:58;;;;;;;80.03;36.80;;;;;;;4.33;78.28;101026.00;1665508;84;21068;-90
2021/01/04 14:40:07;;;;;;;72.97;38.50;;;;;;;4.28;78.51;101023.77;1637443;81;21674;-93
2021/01/04 14:42:46;;;;;;;60.50;30.57;;;;;;;4.20;78.87;101024.91;1623829;85;21192;-94
2021/01/04 14:46:06;;;;;;;53.83;30.67;;;;;;;4.32;78.86;101030.94;1853547;75;26722;-92
2021/01/04 14:49:05;;;;;;;44.83;28.10;;;;;;;4.31;78.72;101034.53;1800767;78;21201;-93
2021/01/04 14:52:02;;;;;;;42.27;24.40;;;;;;;4.18;79.03;101047.09;1784923;77;21311;-93